Time;durP1;ratioP1;P1;durP2;ratioP2;P2;SDS_P1;SDS_P2;PMS_P1;PMS_P2;Temp;Humidity;BMP_temperature;BMP_pressure;BME280_temperature;BME280_humidity;BME280_pressure;Samples;Min_cycle;Max_cycle;Signal;HPM_P1;HPM_P2
2022/06/24 00:02:19;;;;;;;9.93;2.45;;;19.90;99.90;;;;;;5052002;28;20393;-52
2022/06/24 00:04:52;;;;;;;6.30;1.73;;;19.80;99.90;;;;;;5051346;28;20664;-52
2022/06/24 00:07:17;;;;;;;7.95;1.75;;;19.80;99.90;;;;;;5052362;28;21132;-52
2022/06/24 00:09:44;;;;;;;5.77;1.50;;;19.70;99.90;;;;;;5051970;28;20390;-52
2022/06/24 00:12:11;;;;;;;6.30;2.22;;;19.80;99.90;;;;;;5051983;28;20398;-53
2022/06/24 00:14:39;;;;;;;9.00;2.30;;;19.70;99.90;;;;;;5050612;28;20393;-53
2022/06/24 00:17:08;;;;;;;9.13;2.08;;;19.60;99.90;;;;;;5052006;28;20396;-53
2022/06/24 00:19:55;;;;;;;7.40;1.70;;;19.60;99.90;;;;;;5051703;28;20386;-53
2022/06/24 00:22:21;;;;;;;6.20;1.70;;;19.60;99.90;;;;;;5050427;28;20398;-53
2022/06/24 00:24:47;;;;;;;7.38;1.90;;;19.60;99.90;;;;;;5050707;28;20425;-53
2022/06/24 00:27:22;;;;;;;7.53;1.67;;;19.60;99.90;;;;;;5051553;28;20404;-54
2022/06/24 00:29:49;;;;;;;7.00;1.90;;;19.70;99.90;;;;;;5050755;28;20571;-53
2022/06/24 00:32:15;;;;;;;6.80;2.08;;;19.70;99.90;;;;;;5051897;28;20382;-53
2022/06/24 00:34:42;;;;;;;5.70;1.98;;;19.70;99.90;;;;;;5050682;28;20746;-54
2022/06/24 00:37:34;;;;;;;8.63;2.20;;;19.80;99.90;;;;;;5051660;28;20393;-54
2022/06/24 00:40:19;;;;;;;7.25;1.85;;;19.80;99.90;;;;;;5047591;28;20402;-56
2022/06/24 00:42:46;;;;;;;7.10;1.73;;;19.90;99.90;;;;;;5036103;28;20397;-53
2022/06/24 00:45:19;;;;;;;5.90;1.83;;;19.90;99.90;;;;;;5051243;28;20407;-53
2022/06/24 00:47:47;;;;;;;7.90;1.77;;;19.90;99.90;;;;;;5047349;28;20397;-53
2022/06/24 00:50:32;;;;;;;5.80;1.87;;;19.90;99.90;;;;;;5050254;28;20724;-53
2022/06/24 00:53:00;;;;;;;6.80;1.92;;;19.80;99.90;;;;;;5050900;28;20404;-53
2022/06/24 00:55:28;;;;;;;6.13;1.70;;;19.80;99.90;;;;;;5051576;28;20730;-53
2022/06/24 00:57:55;;;;;;;7.43;1.70;;;19.90;99.90;;;;;;5050507;28;20390;-53
2022/06/24 01:00:24;;;;;;;6.90;1.90;;;19.90;99.90;;;;;;5050932;28;20384;-54
2022/06/24 01:02:55;;;;;;;8.38;2.03;;;20.00;99.90;;;;;;5050505;28;20989;-55
2022/06/24 01:05:21;;;;;;;7.30;1.77;;;20.10;99.90;;;;;;5051332;28;20416;-53
2022/06/24 01:07:46;;;;;;;6.43;2.10;;;20.10;99.90;;;;;;5050209;28;20393;-53
2022/06/24 01:10:12;;;;;;;6.75;2.35;;;20.10;99.90;;;;;;5050920;28;20763;-53
2022/06/24 01:12:38;;;;;;;8.10;1.97;;;20.10;99.90;;;;;;5049906;28;21189;-53
2022/06/24 01:15:05;;;;;;;6.80;2.10;;;20.10;99.90;;;;;;5050154;28;20902;-53
2022/06/24 01:17:30;;;;;;;6.20;2.00;;;20.00;99.90;;;;;;5050382;28;20404;-52
2022/06/24 01:19:56;;;;;;;9.40;2.22;;;19.90;99.90;;;;;;5050919;28;20487;-52
2022/06/24 01:22:26;;;;;;;10.85;2.45;;;19.80;99.90;;;;;;5050391;28;20413;-52
2022/06/24 01:24:52;;;;;;;7.32;2.42;;;19.70;99.90;;;;;;5049208;28;20427;-52
2022/06/24 01:27:18;;;;;;;10.68;2.90;;;19.70;99.90;;;;;;5050382;28;20492;-52
2022/06/24 01:29:45;;;;;;;9.00;2.80;;;19.50;99.90;;;;;;5049599;28;20396;-53
2022/06/24 01:32:10;;;;;;;7.82;2.80;;;19.50;99.90;;;;;;5050652;28;20415;-52
2022/06/24 01:34:37;;;;;;;7.10;2.70;;;19.60;99.90;;;;;;5049250;28;20394;-52
2022/06/24 01:37:03;;;;;;;9.40;2.65;;;19.50;99.90;;;;;;5049706;28;20393;-52
2022/06/24 01:39:29;;;;;;;7.60;3.10;;;19.60;99.90;;;;;;5050709;28;20377;-56
2022/06/24 01:41:55;;;;;;;10.43;3.43;;;19.60;99.90;;;;;;5049274;28;20736;-52
2022/06/24 01:44:22;;;;;;;7.22;2.90;;;19.50;99.90;;;;;;5050230;28;20409;-52
2022/06/24 01:46:48;;;;;;;10.80;3.50;;;19.60;99.90;;;;;;5049874;28;20902;-53
2022/06/24 01:49:14;;;;;;;8.50;3.80;;;19.60;99.90;;;;;;5049876;28;20405;-52
2022/06/24 01:51:42;;;;;;;12.20;3.67;;;19.50;99.90;;;;;;5040321;28;20798;-52
2022/06/24 01:54:09;;;;;;;12.05;3.80;;;19.30;99.90;;;;;;5049551;28;20747;-54
2022/06/24 01:56:35;;;;;;;9.82;4.18;;;19.30;99.90;;;;;;5017103;28;20401;-52
2022/06/24 01:59:01;;;;;;;10.07;3.60;;;19.30;99.90;;;;;;5049193;28;20447;-53
2022/06/24 02:01:26;;;;;;;9.00;3.88;;;19.30;99.90;;;;;;5049676;28;20385;-54
2022/06/24 02:03:52;;;;;;;7.93;3.50;;;19.30;99.90;;;;;;5049384;28;20801;-53
2022/06/24 02:06:18;;;;;;;9.32;3.20;;;19.30;99.90;;;;;;5049273;28;20507;-53
2022/06/24 02:08:44;;;;;;;8.57;3.30;;;19.20;99.90;;;;;;5048768;28;20476;-53
2022/06/24 02:13:57;;;;;;;7.27;3.10;;;19.20;99.90;;;;;;5049210;28;20716;-53
2022/06/24 02:16:23;;;;;;;8.73;3.17;;;19.20;99.90;;;;;;5049897;28;20397;-52
2022/06/24 02:18:49;;;;;;;11.40;3.30;;;19.20;99.90;;;;;;5049037;28;21014;-52
2022/06/24 02:21:15;;;;;;;11.88;3.75;;;19.20;99.90;;;;;;5049712;28;20385;-53
2022/06/24 02:23:42;;;;;;;6.87;2.73;;;19.30;99.90;;;;;;5048276;28;20835;-53
2022/06/24 02:26:08;;;;;;;11.52;3.40;;;19.30;99.90;;;;;;5049521;28;20425;-52
2022/06/24 02:28:34;;;;;;;9.73;3.40;;;19.30;99.90;;;;;;5048902;28;20432;-52
2022/06/24 02:31:01;;;;;;;11.93;3.23;;;19.30;99.90;;;;;;5049312;28;20787;-52
2022/06/24 02:33:28;;;;;;;8.77;3.10;;;19.30;99.90;;;;;;5049676;28;20397;-53
2022/06/24 02:35:54;;;;;;;10.20;3.40;;;19.20;99.90;;;;;;5049080;28;20440;-53
2022/06/24 02:38:20;;;;;;;8.52;3.20;;;19.00;99.90;;;;;;5049912;28;20873;-52
2022/06/24 02:40:46;;;;;;;10.05;3.95;;;18.90;99.90;;;;;;5048431;28;20895;-53
2022/06/24 02:43:18;;;;;;;10.88;3.45;;;18.80;99.90;;;;;;5049306;28;20397;-52
2022/06/24 02:45:49;;;;;;;7.72;2.90;;;18.80;99.90;;;;;;5048586;28;20404;-53
2022/06/24 02:48:16;;;;;;;8.30;2.80;;;18.70;99.90;;;;;;5049718;28;20412;-53
2022/06/24 02:50:47;;;;;;;11.27;3.50;;;18.60;99.90;;;;;;5048509;28;20435;-53
2022/06/24 02:53:17;;;;;;;10.73;3.70;;;18.50;99.90;;;;;;5049374;28;20898;-53
2022/06/24 02:55:44;;;;;;;8.90;3.47;;;18.50;99.90;;;;;;5049064;28;20406;-53
2022/06/24 02:58:10;;;;;;;8.52;3.60;;;18.50;99.90;;;;;;5048968;28;20415;-53
2022/06/24 03:00:36;;;;;;;10.30;4.07;;;18.50;99.90;;;;;;5048573;28;20389;-53
2022/06/24 03:03:02;;;;;;;9.32;3.45;;;18.60;99.90;;;;;;5049293;28;20388;-53
2022/06/24 03:05:28;;;;;;;8.00;3.30;;;18.50;99.90;;;;;;5049180;28;20850;-54
2022/06/24 03:07:54;;;;;;;8.38;3.30;;;18.40;99.90;;;;;;5048680;28;20386;-52
2022/06/24 03:10:21;;;;;;;8.15;3.30;;;18.40;99.90;;;;;;5049800;28;20468;-52
2022/06/24 03:12:46;;;;;;;9.30;3.85;;;18.40;99.90;;;;;;5051613;28;20607;-52
2022/06/24 03:15:12;;;;;;;13.50;3.80;;;18.40;99.90;;;;;;5052897;28;20482;-53
2022/06/24 03:17:38;;;;;;;9.90;3.40;;;18.30;99.90;;;;;;5051830;28;20429;-52
2022/06/24 03:20:05;;;;;;;11.18;3.00;;;18.30;99.90;;;;;;5053017;28;20385;-53
2022/06/24 03:22:31;;;;;;;12.65;2.95;;;18.20;99.90;;;;;;5052530;28;20404;-56
2022/06/24 03:24:57;;;;;;;7.97;2.80;;;18.20;99.90;;;;;;5052661;28;20409;-53
2022/06/24 03:27:23;;;;;;;10.30;3.17;;;18.10;99.90;;;;;;5036284;28;20485;-52
2022/06/24 03:29:48;;;;;;;8.65;3.13;;;18.20;99.90;;;;;;5052193;28;20473;-52
2022/06/24 03:32:14;;;;;;;8.57;3.37;;;18.20;99.90;;;;;;5052234;28;20878;-53
2022/06/24 03:34:40;;;;;;;11.30;3.27;;;18.20;99.90;;;;;;5051678;28;20480;-53
2022/06/24 03:37:05;;;;;;;10.70;3.33;;;18.20;99.90;;;;;;5052250;28;20429;-52
2022/06/24 03:39:31;;;;;;;8.70;3.40;;;18.30;99.90;;;;;;5052441;28;20467;-56
2022/06/24 03:41:57;;;;;;;11.13;3.20;;;18.30;99.90;;;;;;5051966;28;20455;-54
2022/06/24 03:44:23;;;;;;;9.50;3.22;;;18.30;99.90;;;;;;5052992;28;20420;-52
2022/06/24 03:46:48;;;;;;;7.85;3.10;;;18.20;99.90;;;;;;5051282;28;20413;-53
2022/06/24 03:49:15;;;;;;;9.50;3.23;;;18.10;99.90;;;;;;5051841;28;20948;-53
2022/06/24 03:51:41;;;;;;;10.70;3.40;;;18.20;99.90;;;;;;5035642;28;20439;-53
2022/06/24 03:54:07;;;;;;;9.88;3.40;;;18.10;99.90;;;;;;5052507;28;20405;-53
2022/06/24 03:56:32;;;;;;;9.03;3.00;;;18.20;99.90;;;;;;5051708;28;20393;-54
2022/06/24 03:58:58;;;;;;;8.50;3.17;;;18.30;99.90;;;;;;5052481;28;20382;-53
2022/06/24 04:01:23;;;;;;;13.40;3.40;;;18.40;99.90;;;;;;5051260;28;20402;-53
2022/06/24 04:03:49;;;;;;;10.55;3.38;;;18.30;99.90;;;;;;5051512;28;20897;-53
2022/06/24 04:06:15;;;;;;;9.97;3.40;;;18.40;99.90;;;;;;5051066;28;20890;-53
2022/06/24 04:08:40;;;;;;;13.43;4.20;;;18.30;99.90;;;;;;5050988;28;20390;-53
2022/06/24 04:11:14;;;;;;;12.13;2.83;;;18.40;99.90;;;;;;5051887;28;20720;-53
2022/06/24 04:13:40;;;;;;;8.15;3.25;;;18.40;99.90;;;;;;5051055;28;20486;-53
2022/06/24 04:16:06;;;;;;;10.60;3.40;;;18.20;99.90;;;;;;5051413;28;20416;-53
2022/06/24 04:18:33;;;;;;;10.68;3.70;;;18.30;99.90;;;;;;5050956;28;20394;-54
2022/06/24 04:20:58;;;;;;;10.73;4.43;;;18.30;99.90;;;;;;5051810;28;20867;-53
2022/06/24 04:23:25;;;;;;;10.45;3.50;;;18.50;99.90;;;;;;5050632;28;20408;-54
2022/06/24 04:25:51;;;;;;;11.50;3.72;;;18.50;99.90;;;;;;5050556;28;20915;-55
2022/06/24 04:28:17;;;;;;;11.02;3.33;;;18.40;99.90;;;;;;5051424;28;20396;-53
2022/06/24 04:30:43;;;;;;;10.80;3.13;;;18.50;99.90;;;;;;5050087;28;20863;-53
2022/06/24 04:33:09;;;;;;;12.52;3.20;;;18.60;99.90;;;;;;5051566;28;20386;-54
2022/06/24 04:35:35;;;;;;;9.60;3.40;;;18.70;99.90;;;;;;5049576;28;22112;-53
2022/06/24 04:38:00;;;;;;;9.80;3.20;;;18.90;99.90;;;;;;5050006;28;20823;-53
2022/06/24 04:40:26;;;;;;;10.10;3.10;;;19.00;99.90;;;;;;5050273;28;20397;-53
2022/06/24 04:42:52;;;;;;;10.90;3.40;;;19.10;99.90;;;;;;5046448;28;20964;-53
2022/06/24 04:45:18;;;;;;;9.25;2.80;;;19.10;99.90;;;;;;5053932;28;20450;-54
2022/06/24 04:47:43;;;;;;;8.80;3.25;;;19.20;99.90;;;;;;5052924;28;20397;-53
2022/06/24 04:50:10;;;;;;;10.32;3.30;;;19.40;99.90;;;;;;5049936;28;20385;-52
2022/06/24 04:52:36;;;;;;;8.70;3.60;;;19.60;99.90;;;;;;5049810;28;20497;-52
2022/06/24 04:55:04;;;;;;;8.57;3.45;;;19.70;99.90;;;;;;5041524;28;20460;-52
2022/06/24 04:57:29;;;;;;;9.10;3.10;;;19.90;99.90;;;;;;5054158;28;20422;-52
2022/06/24 04:59:55;;;;;;;8.17;3.50;;;20.30;99.90;;;;;;5049404;28;20854;-54
2022/06/24 05:02:20;;;;;;;10.97;3.10;;;21.20;1.00;;;;;;5033180;28;20404;-53
2022/06/24 05:04:47;;;;;;;12.07;3.03;;;22.40;1.00;;;;;;5056499;28;20425;-53
2022/06/24 05:07:13;;;;;;;9.02;3.22;;;23.70;77.90;;;;;;5067087;28;20902;-55
2022/06/24 05:09:38;;;;;;;9.10;2.77;;;24.80;1.00;;;;;;5048663;28;20429;-54
2022/06/24 05:12:04;;;;;;;11.23;2.97;;;25.70;1.00;;;;;;5033467;28;20759;-56
2022/06/24 05:14:30;;;;;;;10.45;3.05;;;26.60;99.90;;;;;;5060120;28;20389;-56
2022/06/24 05:16:57;;;;;;;10.20;2.70;;;27.00;99.90;;;;;;5049979;28;20875;-56
2022/06/24 05:19:23;;;;;;;11.23;2.55;;;27.70;99.90;;;;;;5032858;28;20442;-53
2022/06/24 05:21:48;;;;;;;7.53;2.72;;;28.70;99.90;;;;;;5031444;28;20394;-54
2022/06/24 05:24:14;;;;;;;10.70;3.10;;;29.30;29.80;;;;;;5037494;28;20592;-53
2022/06/24 05:26:41;;;;;;;13.48;2.55;;;29.40;1.00;;;;;;5030450;28;20429;-53
2022/06/24 05:29:07;;;;;;;9.98;2.90;;;29.50;1.00;;;;;;5053274;28;20874;-54
2022/06/24 05:31:33;;;;;;;11.80;3.40;;;29.90;1.00;;;;;;5063475;28;20379;-56
2022/06/24 05:33:59;;;;;;;11.73;4.80;;;30.90;1.00;;;;;;5065492;28;22122;-56
2022/06/24 05:36:25;;;;;;;11.10;4.80;;;31.50;35.60;;;;;;5049955;28;20400;-57
2022/06/24 05:38:50;;;;;;;8.90;5.73;;;32.10;91.30;;;;;;5049163;28;20487;-56
2022/06/24 05:41:17;;;;;;;10.35;6.10;;;32.60;99.90;;;;;;5049735;28;20403;-56
2022/06/24 05:43:44;;;;;;;11.40;5.55;;;32.80;99.90;;;;;;5049366;28;20394;-56
2022/06/24 05:46:10;;;;;;;9.43;5.07;;;32.20;99.90;;;;;;5050453;28;20410;-56
2022/06/24 05:48:36;;;;;;;10.70;4.45;;;31.90;99.90;;;;;;5031296;28;20500;-60
2022/06/24 05:51:13;;;;;;;7.50;4.60;;;31.30;99.90;;;;;;5049860;28;20427;-59
2022/06/24 05:56:24;;;;;;;9.15;4.22;;;30.80;99.90;;;;;;5050284;28;20381;-54
2022/06/24 05:58:50;;;;;;;9.37;2.80;;;29.70;99.90;;;;;;5049227;28;20393;-54
2022/06/24 06:01:16;;;;;;;8.05;3.00;;;28.60;99.90;;;;;;5049842;28;20478;-54
2022/06/24 06:03:43;;;;;;;10.18;2.60;;;28.10;99.90;;;;;;5045512;28;20407;-55
2022/06/24 06:06:09;;;;;;;9.50;2.90;;;27.10;99.90;;;;;;5044483;28;20433;-54
2022/06/24 06:08:35;;;;;;;10.77;3.10;;;26.30;99.90;;;;;;5049824;28;20393;-54
2022/06/24 06:11:01;;;;;;;10.90;2.60;;;25.90;99.90;;;;;;5049660;28;20814;-55
2022/06/24 06:13:27;;;;;;;10.02;2.75;;;25.80;99.90;;;;;;5049693;28;20413;-55
2022/06/24 06:15:53;;;;;;;10.93;3.60;;;;;;;;;;5048785;28;20408;-57
2022/06/24 06:18:19;;;;;;;8.90;2.60;;;27.10;99.90;;;;;;5049406;28;20442;-55
2022/06/24 06:20:44;;;;;;;12.00;3.10;;;27.90;99.90;;;;;;5048450;28;20734;-54
2022/06/24 06:23:11;;;;;;;11.77;2.20;;;28.20;1.00;;;;;;5048742;28;20416;-54
2022/06/24 06:25:37;;;;;;;8.65;2.70;;;28.60;1.00;;;;;;5048615;28;20453;-54
2022/06/24 06:28:03;;;;;;;9.50;2.90;;;29.10;1.00;;;;;;5049926;28;20421;-54
2022/06/24 06:30:31;;;;;;;7.60;2.33;;;29.00;1.00;;;;;;5030629;28;20531;-56
2022/06/24 06:32:57;;;;;;;9.55;2.10;;;28.90;1.00;;;;;;5030772;28;20451;-61
2022/06/24 06:35:23;;;;;;;10.40;2.60;;;29.30;1.00;;;;;;5049420;28;20799;-54
2022/06/24 06:37:48;;;;;;;11.38;2.70;;;29.80;21.20;;;;;;5048721;28;20385;-54
2022/06/24 06:40:14;;;;;;;11.82;2.75;;;29.80;24.60;;;;;;5048949;28;20398;-54
2022/06/24 06:42:39;;;;;;;9.50;2.40;;;29.50;40.80;;;;;;5048562;28;20384;-54
2022/06/24 06:45:06;;;;;;;8.73;2.00;;;29.30;23.60;;;;;;5049293;28;20777;-54
2022/06/24 06:47:31;;;;;;;9.35;2.75;;;28.70;22.50;;;;;;5047459;28;20457;-54
2022/06/24 06:49:57;;;;;;;9.63;2.70;;;28.90;59.30;;;;;;5052940;28;20409;-54
2022/06/24 06:52:23;;;;;;;8.35;2.53;;;29.10;24.40;;;;;;5052584;28;20523;-54
2022/06/24 06:54:48;;;;;;;9.00;2.97;;;29.00;50.80;;;;;;5034583;28;20401;-54
2022/06/24 06:57:14;;;;;;;7.90;2.27;;;29.60;60.10;;;;;;5053980;28;20393;-54
2022/06/24 06:59:40;;;;;;;9.47;3.20;;;30.10;24.30;;;;;;5052866;28;20428;-55
2022/06/24 07:02:06;;;;;;;7.60;2.60;;;28.90;2.90;;;;;;5053455;28;20446;-54
2022/06/24 07:04:32;;;;;;;7.63;2.70;;;29.20;18.50;;;;;;5034889;28;20820;-54
2022/06/24 07:06:57;;;;;;;9.00;2.70;;;30.30;51.60;;;;;;5034236;28;20390;-56
2022/06/24 07:09:23;;;;;;;9.40;3.80;;;;;;;;;;5053612;28;20384;-54
2022/06/24 07:11:49;;;;;;;10.40;4.00;;;30.90;21.40;;;;;;5038359;28;20382;-53
2022/06/24 07:14:14;;;;;;;12.73;3.03;;;30.20;25.80;;;;;;5044744;28;20873;-54
2022/06/24 07:16:40;;;;;;;8.67;2.20;;;30.50;32.60;;;;;;5052133;28;20373;-53
2022/06/24 07:19:06;;;;;;;9.93;2.90;;;30.40;25.30;;;;;;5053105;28;20389;-53
2022/06/24 07:21:32;;;;;;;7.38;2.30;;;;;;;;;;5052231;28;20480;-53
2022/06/24 07:23:57;;;;;;;9.15;2.78;;;28.60;29.90;;;;;;5052856;28;20484;-54
2022/06/24 07:26:23;;;;;;;9.05;2.95;;;29.70;46.70;;;;;;5034412;28;20495;-55
2022/06/24 07:28:48;;;;;;;7.60;2.70;;;29.70;1.00;;;;;;5051777;28;20381;-54
2022/06/24 07:31:19;;;;;;;9.20;2.90;;;29.70;1.00;;;;;;5052447;28;20427;-54
2022/06/24 07:33:45;;;;;;;9.35;3.20;;;29.80;1.00;;;;;;5034110;28;20384;-54
2022/06/24 07:36:11;;;;;;;8.93;2.80;;;29.10;1.00;;;;;;5052159;28;20948;-54
2022/06/24 07:38:37;;;;;;;8.93;3.22;;;29.60;1.00;;;;;;5052227;28;20374;-54
2022/06/24 07:41:03;;;;;;;7.60;3.20;;;30.10;1.00;;;;;;5052460;28;20434;-54
2022/06/24 07:43:29;;;;;;;8.90;3.00;;;30.80;1.00;;;;;;5051871;28;20393;-55
2022/06/24 07:45:55;;;;;;;8.13;2.63;;;30.60;1.00;;;;;;5051125;28;20688;-54
2022/06/24 07:48:21;;;;;;;7.03;2.80;;;29.40;1.00;;;;;;5052387;28;20896;-54
2022/06/24 07:50:47;;;;;;;8.85;2.80;;;28.60;1.00;;;;;;5051488;28;20460;-55
2022/06/24 07:53:12;;;;;;;8.60;2.83;;;28.20;1.00;;;;;;5063223;28;20447;-55
2022/06/24 07:58:22;;;;;;;8.65;2.90;;;27.30;1.00;;;;;;5050653;28;20384;-55
2022/06/24 08:00:48;;;;;;;8.53;2.90;;;27.00;1.00;;;;;;5051383;28;20386;-55
2022/06/24 08:03:17;;;;;;;7.70;2.80;;;26.10;1.00;;;;;;5069347;28;20871;-55
2022/06/24 08:05:43;;;;;;;9.90;3.20;;;26.00;1.00;;;;;;5071075;28;20531;-55
2022/06/24 08:08:09;;;;;;;10.95;3.00;;;26.00;1.00;;;;;;5071343;28;20471;-55
2022/06/24 08:10:35;;;;;;;7.60;2.57;;;;;;;;;;5071398;28;20444;-55
2022/06/24 08:13:01;;;;;;;9.27;2.40;;;;;;;;;;5070359;28;20364;-55
2022/06/24 08:15:27;;;;;;;7.83;2.40;;;;;;;;;;5051849;28;20459;-55
2022/06/24 08:17:53;;;;;;;8.60;2.53;;;;;;;;;;5051579;28;21272;-55
2022/06/24 08:20:20;;;;;;;7.75;3.40;;;;;;;;;;5051801;28;20366;-55
2022/06/24 08:22:45;;;;;;;7.70;2.90;;;28.20;99.90;;;;;;5051170;28;20396;-55
2022/06/24 08:25:11;;;;;;;11.60;3.70;;;27.80;99.90;;;;;;5052289;28;20425;-55
2022/06/24 08:27:37;;;;;;;11.37;3.50;;;27.60;99.90;;;;;;5051122;28;20404;-57
2022/06/24 08:30:04;;;;;;;12.00;3.90;;;27.30;99.90;;;;;;5051590;28;20381;-55
2022/06/24 08:32:29;;;;;;;10.38;3.80;;;27.00;99.90;;;;;;5051815;28;20400;-55
2022/06/24 08:34:55;;;;;;;11.07;4.03;;;26.30;99.90;;;;;;5051453;28;20830;-54
2022/06/24 08:37:21;;;;;;;10.20;4.50;;;26.10;99.90;;;;;;5051608;28;20390;-55
2022/06/24 08:39:47;;;;;;;10.40;4.00;;;26.10;99.90;;;;;;5050614;28;20464;-55
2022/06/24 08:42:13;;;;;;;11.18;4.00;;;26.00;99.90;;;;;;5051019;28;20389;-55
2022/06/24 08:44:42;;;;;;;9.90;3.70;;;26.30;99.90;;;;;;5032844;28;20509;-55
2022/06/24 08:47:14;;;;;;;9.27;3.70;;;27.30;99.90;;;;;;5051954;28;20389;-55
2022/06/24 08:49:40;;;;;;;13.70;4.10;;;28.30;99.90;;;;;;5050778;28;20468;-55
2022/06/24 08:52:10;;;;;;;8.38;3.30;;;28.70;99.90;;;;;;5050861;28;20461;-55
2022/06/24 08:54:39;;;;;;;9.10;3.40;;;29.10;99.90;;;;;;5050623;28;20865;-57
2022/06/24 08:57:04;;;;;;;11.15;3.70;;;29.00;99.90;;;;;;5051043;28;20424;-55
2022/06/24 08:59:31;;;;;;;8.80;3.40;;;29.60;99.90;;;;;;5050939;28;20491;-55
2022/06/24 09:01:57;;;;;;;7.90;2.90;;;29.70;99.90;;;;;;5050414;28;20369;-56
2022/06/24 09:04:23;;;;;;;10.00;3.00;;;30.60;99.90;;;;;;5051277;28;20739;-55
2022/06/24 09:06:49;;;;;;;10.27;3.70;;;31.60;99.90;;;;;;5050513;28;20374;-56
2022/06/24 09:09:24;;;;;;;10.00;5.38;;;32.60;99.90;;;;;;5051172;28;20433;-55
2022/06/24 09:11:57;;;;;;;10.40;5.78;;;33.40;99.90;;;;;;5050328;28;20377;-56
2022/06/24 09:14:41;;;;;;;9.68;5.40;;;34.00;99.90;;;;;;5050657;28;20896;-56
2022/06/24 09:17:07;;;;;;;12.77;6.25;;;34.00;99.90;;;;;;5050531;28;20396;-55
2022/06/24 09:19:33;;;;;;;9.55;6.63;;;35.00;99.90;;;;;;5032842;28;20390;-56
2022/06/24 09:21:59;;;;;;;10.27;6.33;;;34.80;99.90;;;;;;5049744;28;20387;-56
2022/06/24 09:24:47;;;;;;;11.82;6.47;;;34.50;99.90;;;;;;5050166;28;20449;-55
2022/06/24 09:27:13;;;;;;;8.98;5.47;;;32.00;99.90;;;;;;5050546;28;20393;-55
2022/06/24 09:29:49;;;;;;;9.10;4.60;;;30.80;99.90;;;;;;5050596;28;20378;-55
2022/06/24 09:32:15;;;;;;;10.18;4.32;;;30.10;99.90;;;;;;5050131;28;20390;-55
2022/06/24 09:35:06;;;;;;;9.37;4.40;;;29.50;99.90;;;;;;5050363;28;20831;-55
2022/06/24 09:37:43;;;;;;;7.07;3.80;;;29.00;99.90;;;;;;5050162;28;20382;-56
2022/06/24 09:40:15;;;;;;;9.52;3.40;;;29.60;99.90;;;;;;5033813;28;20388;-55
2022/06/24 09:42:41;;;;;;;9.15;2.65;;;29.60;99.90;;;;;;5049867;28;20388;-55
2022/06/24 09:45:07;;;;;;;8.95;3.20;;;29.80;99.90;;;;;;5050077;28;20397;-55
2022/06/24 09:47:39;;;;;;;10.30;3.60;;;29.40;99.90;;;;;;5050595;28;20393;-55
2022/06/24 09:50:05;;;;;;;8.03;3.03;;;29.00;99.90;;;;;;5050450;28;20423;-55
2022/06/24 09:52:31;;;;;;;12.35;3.30;;;29.60;99.90;;;;;;5050113;28;20381;-55
2022/06/24 09:54:58;;;;;;;12.13;3.57;;;30.60;99.90;;;;;;5031054;28;21091;-55
2022/06/24 09:57:24;;;;;;;8.55;3.42;;;32.30;99.90;;;;;;5032662;28;20712;-56
2022/06/24 10:02:35;;;;;;;9.00;4.28;;;34.20;99.90;;;;;;5049604;28;20815;-55
2022/06/24 10:05:02;;;;;;;9.25;4.30;;;34.80;99.90;;;;;;5049726;28;20405;-56
2022/06/24 10:07:33;;;;;;;8.05;4.10;;;35.00;99.90;;;;;;5049674;28;20396;-55
2022/06/24 10:10:03;;;;;;;8.18;4.00;;;34.20;99.90;;;;;;5049399;28;20787;-55
2022/06/24 10:12:31;;;;;;;9.82;4.40;;;33.60;99.90;;;;;;5050129;28;20842;-56
2022/06/24 10:14:59;;;;;;;11.02;5.38;;;34.90;99.90;;;;;;5049413;28;20552;-56
2022/06/24 10:17:28;;;;;;;9.30;5.70;;;35.30;99.90;;;;;;5031799;28;20854;-56
2022/06/24 10:19:55;;;;;;;9.23;7.10;;;35.60;99.90;;;;;;5048818;28;20385;-55
2022/06/24 10:22:42;;;;;;;9.50;6.40;;;35.00;99.90;;;;;;5049706;28;20978;-56
2022/06/24 10:25:08;;;;;;;9.55;4.80;;;34.40;99.90;;;;;;5049410;28;20962;-55
2022/06/24 10:28:12;;;;;;;9.80;4.50;;;33.90;99.90;;;;;;5049551;28;20468;-55
2022/06/24 10:30:41;;;;;;;9.80;5.50;;;33.00;99.90;;;;;;5048330;28;20488;-57
2022/06/24 10:33:14;;;;;;;9.23;4.93;;;33.10;99.90;;;;;;5049401;28;20946;-55
2022/06/24 10:36:01;;;;;;;10.00;4.97;;;32.40;99.90;;;;;;5048713;28;20439;-56
2022/06/24 10:38:40;;;;;;;9.77;5.18;;;31.70;99.90;;;;;;5049386;28;20390;-55
2022/06/24 10:41:09;;;;;;;6.63;3.80;;;30.90;99.90;;;;;;5049379;28;20385;-55
2022/06/24 10:43:42;;;;;;;9.00;4.07;;;30.40;99.90;;;;;;5049377;28;20381;-55
2022/06/24 10:46:11;;;;;;;7.47;3.00;;;30.30;99.90;;;;;;5049646;28;20889;-55
2022/06/24 10:48:57;;;;;;;11.00;3.25;;;29.70;99.90;;;;;;5049371;28;20389;-57
2022/06/24 10:51:28;;;;;;;7.93;3.03;;;29.00;99.90;;;;;;5049427;28;20412;-55
2022/06/24 10:54:02;;;;;;;6.88;2.80;;;28.80;99.90;;;;;;5048969;28;20863;-55
2022/06/24 10:56:46;;;;;;;7.20;2.70;;;28.10;99.90;;;;;;5049456;28;20401;-55
2022/06/24 10:59:13;;;;;;;9.75;2.70;;;27.90;99.90;;;;;;5049903;28;20396;-55
2022/06/24 11:01:44;;;;;;;8.05;2.60;;;27.60;99.90;;;;;;5049473;28;20378;-55
2022/06/24 11:04:19;;;;;;;7.15;2.42;;;27.50;99.90;;;;;;5049909;28;20865;-55
2022/06/24 11:07:11;;;;;;;7.43;2.20;;;27.90;99.90;;;;;;5048774;28;20450;-55
2022/06/24 11:09:37;;;;;;;7.28;2.80;;;28.70;99.90;;;;;;5049334;28;20754;-55
2022/06/24 11:12:04;;;;;;;7.47;2.47;;;28.90;99.90;;;;;;5048486;28;20416;-55
2022/06/24 11:14:30;;;;;;;6.93;2.30;;;29.40;99.90;;;;;;5048972;28;20468;-55
2022/06/24 11:16:56;;;;;;;6.80;2.27;;;29.70;99.90;;;;;;5048461;28;20516;-55
2022/06/24 11:19:21;;;;;;;8.10;1.80;;;29.60;99.90;;;;;;5049315;28;20855;-56
2022/06/24 11:21:50;;;;;;;7.37;2.50;;;29.50;99.90;;;;;;5048497;28;20375;-55
2022/06/24 11:24:20;;;;;;;10.55;2.30;;;29.30;99.90;;;;;;5048603;28;20888;-55
2022/06/24 11:27:08;;;;;;;6.28;2.10;;;28.80;99.90;;;;;;5048311;28;20439;-55
2022/06/24 11:29:56;;;;;;;6.90;1.90;;;28.70;99.90;;;;;;5049782;28;20374;-55
2022/06/24 11:32:22;;;;;;;6.47;2.45;;;28.20;99.90;;;;;;5049915;28;20862;-55
2022/06/24 11:34:48;;;;;;;7.40;2.22;;;28.50;99.90;;;;;;5051240;28;20734;-56
2022/06/24 11:37:20;;;;;;;5.72;1.42;;;28.90;99.90;;;;;;5052771;28;20907;-55
2022/06/24 11:39:46;;;;;;;5.93;1.80;;;29.00;99.90;;;;;;5052319;28;20419;-56
2022/06/24 11:42:16;;;;;;;7.25;2.20;;;28.80;99.90;;;;;;5052181;28;20484;-56
2022/06/24 11:44:41;;;;;;;7.30;1.90;;;28.80;99.90;;;;;;5051937;28;20446;-57
2022/06/24 11:47:07;;;;;;;6.68;1.80;;;29.30;99.90;;;;;;5052802;28;20389;-56
2022/06/24 11:49:34;;;;;;;7.53;1.90;;;29.30;99.90;;;;;;5052750;28;20374;-57
2022/06/24 11:52:01;;;;;;;5.50;1.40;;;29.50;99.90;;;;;;5051873;28;20373;-57
2022/06/24 11:54:30;;;;;;;5.90;1.50;;;29.70;99.90;;;;;;5052608;28;20802;-57
2022/06/24 11:56:57;;;;;;;6.10;1.80;;;29.50;99.90;;;;;;5051626;28;20378;-57
2022/06/24 11:59:26;;;;;;;5.87;1.40;;;29.10;99.90;;;;;;5052633;28;20376;-57
2022/06/24 12:01:52;;;;;;;8.03;1.90;;;29.20;99.90;;;;;;5051591;28;20400;-57
2022/06/24 12:04:20;;;;;;;6.10;1.90;;;29.30;99.90;;;;;;5052101;28;20438;-56
2022/06/24 12:06:46;;;;;;;5.70;1.70;;;28.50;99.90;;;;;;5034065;28;20436;-56
2022/06/24 12:09:13;;;;;;;6.20;1.95;;;28.00;99.90;;;;;;5051913;28;20439;-56
2022/06/24 12:11:41;;;;;;;6.20;2.00;;;27.90;99.90;;;;;;5052379;28;20373;-57
2022/06/24 12:14:18;;;;;;;7.50;1.70;;;28.50;99.90;;;;;;5051307;28;20385;-57
2022/06/24 12:17:03;;;;;;;6.10;1.70;;;29.10;99.90;;;;;;5051423;28;20854;-57
2022/06/24 12:19:54;;;;;;;6.10;1.90;;;29.60;99.90;;;;;;5052313;28;20480;-57
2022/06/24 12:22:19;;;;;;;5.88;1.55;;;29.70;99.90;;;;;;5051567;28;20404;-56
2022/06/24 12:24:45;;;;;;;8.40;1.70;;;30.00;99.90;;;;;;5051047;28;20901;-57
2022/06/24 12:27:12;;;;;;;6.93;2.00;;;30.40;99.90;;;;;;5051510;28;20480;-54
2022/06/24 12:29:40;;;;;;;5.32;1.40;;;30.60;99.90;;;;;;5051794;28;20389;-54
2022/06/24 12:32:07;;;;;;;5.47;1.55;;;29.90;99.90;;;;;;5052120;28;20389;-57
2022/06/24 12:34:38;;;;;;;5.87;1.80;;;29.30;99.90;;;;;;5051990;28;20709;-55
2022/06/24 12:37:08;;;;;;;6.10;1.60;;;29.20;99.90;;;;;;5050851;28;20392;-55
2022/06/24 12:39:36;;;;;;;5.90;1.75;;;29.20;99.90;;;;;;5051475;28;20390;-55
2022/06/24 12:42:03;;;;;;;6.10;2.00;;;28.70;99.90;;;;;;5050967;28;20729;-55
2022/06/24 12:44:57;;;;;;;6.53;1.50;;;28.70;99.90;;;;;;5033235;28;20385;-55
2022/06/24 12:53:00;;;;;;;5.97;2.10;;;28.80;99.90;;;;;;5050701;28;20427;-56
2022/06/24 12:55:27;;;;;;;5.60;1.80;;;28.60;99.90;;;;;;5033044;28;20401;-55
2022/06/24 12:57:53;;;;;;;6.95;1.70;;;28.60;99.90;;;;;;5050501;28;20446;-56
2022/06/24 13:00:19;;;;;;;7.10;1.80;;;28.80;99.90;;;;;;5032667;28;20872;-56
2022/06/24 13:02:47;;;;;;;5.93;1.73;;;28.70;99.90;;;;;;5050484;28;20435;-56
2022/06/24 13:05:14;;;;;;;6.60;1.60;;;28.70;99.90;;;;;;5050976;28;20412;-55
2022/06/24 13:07:40;;;;;;;6.10;1.80;;;28.60;99.90;;;;;;5051033;28;20431;-57
2022/06/24 13:10:07;;;;;;;7.38;2.20;;;27.90;99.90;;;;;;5033137;28;20393;-56